Time;durP1;ratioP1;P1;durP2;ratioP2;P2;SDS_P1;SDS_P2;PMS_P1;PMS_P2;Temp;Humidity;BMP_temperature;BMP_pressure;BME280_temperature;BME280_humidity;BME280_pressure;Samples;Min_cycle;Max_cycle;Signal;HPM_P1;HPM_P2
2023/09/07 00:00:50;;;;;;;10.30;8.80;;;;;;;;;;6135041;23;20049;-84
2023/09/07 00:03:16;;;;;;;10.50;9.07;;;;;;;;;;6134673;23;20071;-84
2023/09/07 00:05:43;;;;;;;11.13;8.77;;;;;;;;;;6134866;23;20017;-84
2023/09/07 00:08:11;;;;;;;12.02;8.57;;;;;;;;;;6134507;23;20018;-84
2023/09/07 00:10:41;;;;;;;11.13;8.70;;;;;;;;;;6158410;23;20467;-84
2023/09/07 00:13:07;;;;;;;9.68;8.20;;;;;;;;;;6159671;23;20024;-84
2023/09/07 00:15:38;;;;;;;9.65;8.57;;;;;;;;;;6159446;23;20017;-84
2023/09/07 00:18:04;;;;;;;9.50;8.57;;;;;;;;;;6158918;23;20025;-83
2023/09/07 00:20:34;;;;;;;10.30;8.73;;;;;;;;;;6134496;23;20544;-84
2023/09/07 00:23:03;;;;;;;10.55;8.63;;;;;;;;;;6134879;23;20021;-83
2023/09/07 00:25:32;;;;;;;9.07;8.18;;;;;;;;;;6159336;23;20020;-84
2023/09/07 00:28:01;;;;;;;10.07;8.80;;;;;;;;;;6158842;23;20622;-84
2023/09/07 00:30:27;;;;;;;9.75;8.55;;;;;;;;;;6159418;23;20017;-84
2023/09/07 00:32:53;;;;;;;10.00;8.70;;;;;;;;;;6135023;23;20043;-83
2023/09/07 00:35:19;;;;;;;9.90;8.90;;;;;;;;;;6134970;23;20016;-84
2023/09/07 00:37:46;;;;;;;10.45;8.88;;;;;;;;;;6134479;23;20037;-84
2023/09/07 00:40:12;;;;;;;10.27;9.27;;;;;;;;;;6134667;23;20023;-84
2023/09/07 00:42:38;;;;;;;10.27;9.18;;;;;;;;;;6159674;23;20139;-84
2023/09/07 00:45:07;;;;;;;10.23;8.57;;;;;;;;;;6134361;23;20386;-84
2023/09/07 00:47:36;;;;;;;9.88;8.93;;;;;;;;;;6134893;23;20020;-83
2023/09/07 00:50:02;;;;;;;10.48;9.38;;;;;;;;;;6160177;23;20444;-83
2023/09/07 00:52:29;;;;;;;9.70;8.70;;;;;;;;;;6159300;23;20341;-84
2023/09/07 00:54:57;;;;;;;10.05;8.38;;;;;;;;;;6134615;23;20013;-84
2023/09/07 00:57:25;;;;;;;9.60;8.40;;;;;;;;;;6158021;23;20021;-84
2023/09/07 00:59:51;;;;;;;13.70;8.55;;;;;;;;;;6134799;23;20045;-83
2023/09/07 01:02:18;;;;;;;15.23;8.93;;;;;;;;;;6135273;23;20499;-84
2023/09/07 01:04:46;;;;;;;9.48;8.55;;;;;;;;;;6158693;23;20404;-84
2023/09/07 01:07:22;;;;;;;10.38;8.45;;;;;;;;;;6157856;23;20032;-83
2023/09/07 01:09:50;;;;;;;9.40;8.20;;;;;;;;;;6134487;23;20345;-84
2023/09/07 01:12:18;;;;;;;9.10;7.63;;;;;;;;;;6134727;23;20013;-83
2023/09/07 01:14:45;;;;;;;9.52;7.55;;;;;;;;;;6158708;23;20024;-83
2023/09/07 01:17:13;;;;;;;8.60;7.75;;;;;;;;;;6157455;23;20020;-84
2023/09/07 01:19:40;;;;;;;8.57;7.50;;;;;;;;;;6158939;23;20013;-83
2023/09/07 01:22:10;;;;;;;8.88;7.45;;;;;;;;;;6134508;23;20291;-83
2023/09/07 01:24:38;;;;;;;8.55;7.75;;;;;;;;;;6159034;23;20013;-83
2023/09/07 01:27:07;;;;;;;9.02;7.60;;;;;;;;;;6133160;23;20021;-84
2023/09/07 01:29:33;;;;;;;9.90;8.68;;;;;;;;;;6159303;23;20017;-83
2023/09/07 01:31:59;;;;;;;11.05;9.10;;;;;;;;;;6158817;23;20120;-84
2023/09/07 01:34:26;;;;;;;14.82;9.60;;;;;;;;;;6134060;23;20020;-83
2023/09/07 01:36:52;;;;;;;11.98;9.45;;;;;;;;;;6133592;23;20017;-84
2023/09/07 01:39:18;;;;;;;10.90;9.75;;;;;;;;;;6158350;23;20021;-84
2023/09/07 01:41:47;;;;;;;10.48;9.10;;;;;;;;;;6133947;23;20381;-84
2023/09/07 01:44:13;;;;;;;10.70;9.27;;;;;;;;;;6158249;23;20496;-83
2023/09/07 01:46:42;;;;;;;10.93;8.68;;;;;;;;;;6133439;23;20021;-84
2023/09/07 01:49:08;;;;;;;11.23;9.00;;;;;;;;;;6132760;23;20023;-84
2023/09/07 01:51:35;;;;;;;10.18;9.18;;;;;;;;;;6133751;23;20024;-83
2023/09/07 01:54:01;;;;;;;8.82;7.93;;;;;;;;;;6158559;23;20461;-84
2023/09/07 01:56:27;;;;;;;9.38;8.40;;;;;;;;;;6133818;23;20100;-83
2023/09/07 01:58:53;;;;;;;10.20;7.95;;;;;;;;;;6133733;23;20430;-83
2023/09/07 02:01:24;;;;;;;11.00;9.18;;;;;;;;;;6133911;23;20056;-84
2023/09/07 02:03:50;;;;;;;9.43;8.52;;;;;;;;;;6132691;23;20026;-83
2023/09/07 02:06:16;;;;;;;9.80;8.80;;;;;;;;;;6134675;23;20444;-83
2023/09/07 02:08:42;;;;;;;11.40;8.63;;;;;;;;;;6133534;23;20024;-84
2023/09/07 02:11:09;;;;;;;9.50;8.50;;;;;;;;;;6133884;23;20088;-84
2023/09/07 02:13:35;;;;;;;9.27;8.25;;;;;;;;;;6133617;23;20060;-83
2023/09/07 02:16:05;;;;;;;10.35;9.00;;;;;;;;;;6133369;23;20021;-84
2023/09/07 02:18:32;;;;;;;12.20;9.38;;;;;;;;;;6133305;23;20017;-84
2023/09/07 02:21:05;;;;;;;11.77;9.27;;;;;;;;;;6159100;23;20016;-83
2023/09/07 02:23:32;;;;;;;11.07;9.07;;;;;;;;;;6134207;23;20017;-83
2023/09/07 02:25:58;;;;;;;10.70;9.50;;;;;;;;;;6133529;23;20023;-83
2023/09/07 02:28:25;;;;;;;9.85;8.52;;;;;;;;;;6157845;23;20024;-83
2023/09/07 02:30:51;;;;;;;10.52;8.85;;;;;;;;;;6157639;23;20091;-83
2023/09/07 02:33:17;;;;;;;9.85;8.65;;;;;;;;;;6134995;23;20445;-83
2023/09/07 02:35:44;;;;;;;10.80;9.70;;;;;;;;;;6134117;23;20349;-83
2023/09/07 02:38:10;;;;;;;11.35;10.05;;;;;;;;;;6157211;23;20028;-83
2023/09/07 02:40:43;;;;;;;10.48;9.40;;;;;;;;;;6158823;23;20345;-83
2023/09/07 02:43:09;;;;;;;10.88;9.18;;;;;;;;;;6134009;23;20024;-83
2023/09/07 02:45:35;;;;;;;10.85;9.85;;;;;;;;;;6157391;23;20017;-83
2023/09/07 02:48:01;;;;;;;12.48;10.02;;;;;;;;;;6157955;23;20124;-84
2023/09/07 02:50:30;;;;;;;11.38;9.30;;;;;;;;;;6158083;23;20027;-83
2023/09/07 02:52:57;;;;;;;11.07;9.80;;;;;;;;;;6134201;23;20452;-83
2023/09/07 02:55:23;;;;;;;12.30;10.48;;;;;;;;;;6158014;23;20058;-83
2023/09/07 02:57:49;;;;;;;11.45;10.10;;;;;;;;;;6158004;23;20097;-83
2023/09/07 03:00:17;;;;;;;10.75;9.65;;;;;;;;;;6157978;23;20096;-84
2023/09/07 03:02:44;;;;;;;10.93;9.13;;;;;;;;;;6158061;23;20383;-83
2023/09/07 03:05:10;;;;;;;11.20;10.02;;;;;;;;;;6157442;23;20045;-83
2023/09/07 03:07:39;;;;;;;10.48;9.48;;;;;;;;;;6158638;23;20045;-83
2023/09/07 03:10:05;;;;;;;12.13;10.25;;;;;;;;;;6159592;23;20426;-84
2023/09/07 03:12:31;;;;;;;11.63;9.70;;;;;;;;;;6160675;23;20024;-83
2023/09/07 03:14:57;;;;;;;10.98;9.80;;;;;;;;;;6159980;23;20017;-84
2023/09/07 03:17:23;;;;;;;12.85;10.43;;;;;;;;;;6134857;23;20025;-83
2023/09/07 03:19:50;;;;;;;11.77;9.85;;;;;;;;;;6160336;23;20072;-83
2023/09/07 03:22:16;;;;;;;11.55;10.27;;;;;;;;;;6186474;23;20017;-83
2023/09/07 03:24:42;;;;;;;11.02;9.60;;;;;;;;;;6158779;23;20386;-83
2023/09/07 03:27:10;;;;;;;10.95;9.73;;;;;;;;;;6135033;23;20020;-84
2023/09/07 03:29:38;;;;;;;11.60;10.40;;;;;;;;;;6159361;23;20021;-83
2023/09/07 03:32:04;;;;;;;11.43;10.32;;;;;;;;;;6160639;23;20021;-83
2023/09/07 03:34:30;;;;;;;10.75;9.57;;;;;;;;;;6160386;23;20396;-84
2023/09/07 03:36:57;;;;;;;10.68;9.63;;;;;;;;;;6129887;23;20092;-83
2023/09/07 03:39:23;;;;;;;12.63;9.98;;;;;;;;;;6105740;23;20322;-83
2023/09/07 03:41:49;;;;;;;10.32;9.32;;;;;;;;;;6105972;23;20021;-84
2023/09/07 03:44:15;;;;;;;11.15;9.07;;;;;;;;;;6105864;23;20017;-83
2023/09/07 03:46:42;;;;;;;11.52;9.88;;;;;;;;;;6131038;23;20085;-83
2023/09/07 03:49:10;;;;;;;10.80;9.70;;;;;;;;;;6131094;23;20017;-83
2023/09/07 03:51:37;;;;;;;10.38;9.27;;;;;;;;;;6105687;23;20065;-83
2023/09/07 03:54:03;;;;;;;11.45;10.23;;;;;;;;;;6105227;23;20032;-84
2023/09/07 03:56:30;;;;;;;12.90;10.50;;;;;;;;;;6106670;23;20052;-83
2023/09/07 03:58:56;;;;;;;11.50;9.90;;;;;;;;;;6105643;23;20013;-83
2023/09/07 04:01:22;;;;;;;11.55;9.80;;;;;;;;;;6104314;23;20137;-83
2023/09/07 04:03:50;;;;;;;12.32;10.90;;;;;;;;;;6130099;23;20025;-83
2023/09/07 04:06:16;;;;;;;11.40;10.25;;;;;;;;;;6104852;23;20405;-83
2023/09/07 04:08:42;;;;;;;14.00;10.98;;;;;;;;;;6104730;23;20018;-83
2023/09/07 04:11:11;;;;;;;12.02;10.27;;;;;;;;;;6103859;23;20065;-84
2023/09/07 04:13:40;;;;;;;15.95;10.38;;;;;;;;;;6105041;23;20052;-83
2023/09/07 04:16:09;;;;;;;13.15;10.45;;;;;;;;;;6105759;23;20018;-83
2023/09/07 04:18:35;;;;;;;16.25;11.05;;;;;;;;;;6105350;23;20021;-84
2023/09/07 04:21:06;;;;;;;12.32;11.02;;;;;;;;;;6104886;23;20021;-83
2023/09/07 04:23:34;;;;;;;13.45;11.00;;;;;;;;;;6105294;23;20449;-84
2023/09/07 04:26:09;;;;;;;11.43;10.23;;;;;;;;;;6105570;23;20028;-83
2023/09/07 04:28:35;;;;;;;12.52;11.00;;;;;;;;;;6130130;23;20021;-83
2023/09/07 04:31:02;;;;;;;12.57;11.05;;;;;;;;;;6104581;23;20040;-84
2023/09/07 04:33:32;;;;;;;15.05;11.10;;;;;;;;;;6105452;23;20458;-83
2023/09/07 04:36:07;;;;;;;12.57;10.82;;;;;;;;;;6130591;23;20069;-83
2023/09/07 04:38:33;;;;;;;11.95;10.52;;;;;;;;;;6104255;23;20109;-84
2023/09/07 04:41:11;;;;;;;11.85;10.63;;;;;;;;;;6128643;23;20455;-84
2023/09/07 04:43:45;;;;;;;12.43;10.48;;;;;;;;;;6129903;23;20025;-83
2023/09/07 04:46:16;;;;;;;13.10;10.88;;;;;;;;;;6127922;23;20014;-83
2023/09/07 04:48:43;;;;;;;14.20;10.82;;;;;;;;;;6130092;23;20021;-83
2023/09/07 04:51:10;;;;;;;12.40;10.63;;;;;;;;;;6129089;23;20017;-84
2023/09/07 04:53:37;;;;;;;12.93;10.25;;;;;;;;;;6129616;23;20021;-84
2023/09/07 04:56:04;;;;;;;12.02;10.25;;;;;;;;;;6130872;23;20017;-83
2023/09/07 04:58:31;;;;;;;12.27;10.68;;;;;;;;;;6128128;23;20068;-84
2023/09/07 05:01:03;;;;;;;13.73;10.55;;;;;;;;;;6129601;23;20024;-83
2023/09/07 05:03:30;;;;;;;12.15;10.02;;;;;;;;;;6130227;23;20017;-84
2023/09/07 05:05:56;;;;;;;13.05;10.05;;;;;;;;;;6129077;23;20022;-83
2023/09/07 05:08:25;;;;;;;12.82;10.93;;;;;;;;;;6129957;23;20014;-83
2023/09/07 05:10:56;;;;;;;12.25;11.05;;;;;;;;;;6129291;23;20097;-84
2023/09/07 05:13:22;;;;;;;11.25;10.15;;;;;;;;;;6130393;23;20014;-83
2023/09/07 05:15:49;;;;;;;12.40;10.63;;;;;;;;;;6129684;23;20014;-83
2023/09/07 05:18:15;;;;;;;12.50;10.82;;;;;;;;;;6130694;23;20018;-84
2023/09/07 05:20:41;;;;;;;13.00;10.52;;;;;;;;;;6130521;23;20339;-84
2023/09/07 05:23:07;;;;;;;12.70;10.60;;;;;;;;;;6131202;23;20013;-83
2023/09/07 05:25:33;;;;;;;13.50;10.90;;;;;;;;;;6130235;23;20069;-84
2023/09/07 05:28:00;;;;;;;13.30;10.45;;;;;;;;;;6131116;23;20018;-83
2023/09/07 05:30:26;;;;;;;12.23;10.02;;;;;;;;;;6130420;23;20018;-84
2023/09/07 05:32:52;;;;;;;14.55;10.80;;;;;;;;;;6130637;23;20018;-84
2023/09/07 05:35:18;;;;;;;12.02;10.40;;;;;;;;;;6130467;23;20018;-84
2023/09/07 05:37:46;;;;;;;11.95;10.75;;;;;;;;;;6146374;23;20024;-84
2023/09/07 05:40:13;;;;;;;12.13;10.32;;;;;;;;;;6135025;23;20468;-84
2023/09/07 05:42:41;;;;;;;11.07;9.85;;;;;;;;;;6159115;23;20087;-85
2023/09/07 05:45:08;;;;;;;12.88;10.48;;;;;;;;;;6157845;23;20027;-84
2023/09/07 05:47:37;;;;;;;13.02;10.88;;;;;;;;;;6133834;23;20104;-84
2023/09/07 05:50:03;;;;;;;15.07;10.48;;;;;;;;;;6159139;23;20020;-84
2023/09/07 05:52:29;;;;;;;11.57;10.30;;;;;;;;;;6134590;23;20024;-85
2023/09/07 05:54:55;;;;;;;11.75;10.55;;;;;;;;;;6134466;23;20021;-85
2023/09/07 05:57:22;;;;;;;13.02;10.30;;;;;;;;;;6133231;23;20013;-84
2023/09/07 05:59:48;;;;;;;13.35;10.60;;;;;;;;;;6158386;23;20056;-83
2023/09/07 06:02:23;;;;;;;11.63;10.35;;;;;;;;;;6135494;23;20095;-84
2023/09/07 06:04:52;;;;;;;13.82;10.02;;;;;;;;;;6134358;23;20095;-84
2023/09/07 06:07:18;;;;;;;11.68;10.13;;;;;;;;;;6134206;23;20063;-83
2023/09/07 06:09:46;;;;;;;11.40;10.20;;;;;;;;;;6158931;23;20017;-83
2023/09/07 06:12:23;;;;;;;11.13;9.98;;;;;;;;;;6132780;23;20016;-84
2023/09/07 06:14:51;;;;;;;13.32;10.30;;;;;;;;;;6158518;23;20017;-84
2023/09/07 06:17:20;;;;;;;14.60;10.52;;;;;;;;;;6133853;23;20158;-84
2023/09/07 06:19:46;;;;;;;13.13;10.63;;;;;;;;;;6157690;23;20017;-84
2023/09/07 06:22:24;;;;;;;11.88;10.27;;;;;;;;;;6158231;23;20017;-84
2023/09/07 06:24:50;;;;;;;12.35;10.10;;;;;;;;;;6133712;23;20013;-84
2023/09/07 06:27:16;;;;;;;13.07;10.13;;;;;;;;;;6133871;23;20013;-84
2023/09/07 06:29:43;;;;;;;13.27;10.18;;;;;;;;;;6133283;23;20013;-84
2023/09/07 06:32:09;;;;;;;12.50;10.35;;;;;;;;;;6134655;23;20017;-83
2023/09/07 06:34:35;;;;;;;13.88;10.00;;;;;;;;;;6135040;23;20013;-83
2023/09/07 06:37:01;;;;;;;11.32;10.10;;;;;;;;;;6134010;23;20049;-83
2023/09/07 06:39:27;;;;;;;11.18;10.02;;;;;;;;;;6133845;23;20056;-85
2023/09/07 09:37:19;;;;;;;6.40;5.20;;;;;;;;;;6226648;22;20032;-84
2023/09/07 09:39:50;;;;;;;6.45;4.97;;;;;;;;;;6218980;23;20423;-84
2023/09/07 09:42:17;;;;;;;6.75;5.57;;;;;;;;;;6219646;23;20008;-84
2023/09/07 09:44:44;;;;;;;7.70;5.57;;;;;;;;;;6219003;23;20069;-83
2023/09/07 09:47:11;;;;;;;7.88;5.55;;;;;;;;;;6219613;23;20320;-83
2023/09/07 09:49:38;;;;;;;6.20;4.97;;;;;;;;;;6246521;23;20391;-85
2023/09/07 09:52:04;;;;;;;5.20;4.70;;;;;;;;;;6219383;23;20016;-82
2023/09/07 09:54:30;;;;;;;10.25;4.70;;;;;;;;;;6219656;23;20024;-83
2023/09/07 09:56:56;;;;;;;5.63;4.93;;;;;;;;;;6245806;23;20016;-83
2023/09/07 09:59:22;;;;;;;6.97;4.75;;;;;;;;;;6219087;23;20517;-83
2023/09/07 10:01:52;;;;;;;6.38;4.80;;;;;;;;;;6245681;23;20436;-83
2023/09/07 10:04:19;;;;;;;9.82;5.15;;;;;;;;;;6218616;23;20483;-83
2023/09/07 10:06:54;;;;;;;6.85;5.15;;;;;;;;;;6219083;23;20020;-83
2023/09/07 10:09:21;;;;;;;9.77;5.10;;;;;;;;;;6245011;23;20082;-83
2023/09/07 10:11:52;;;;;;;7.07;4.80;;;;;;;;;;6194030;23;20091;-83
2023/09/07 10:14:18;;;;;;;6.93;5.00;;;;;;;;;;6244210;23;20153;-83
2023/09/07 10:16:48;;;;;;;5.68;4.65;;;;;;;;;;6192972;23;20091;-83
2023/09/07 10:19:21;;;;;;;8.75;4.90;;;;;;;;;;6245745;23;20382;-83
2023/09/07 10:21:48;;;;;;;9.35;5.05;;;;;;;;;;6219272;23;20094;-83
2023/09/07 10:24:26;;;;;;;9.77;4.95;;;;;;;;;;6218052;23;20019;-83
2023/09/07 10:27:08;;;;;;;7.95;4.65;;;;;;;;;;6194529;23;20099;-83
2023/09/07 10:29:53;;;;;;;7.88;5.13;;;;;;;;;;6195393;23;20103;-83
2023/09/07 10:32:19;;;;;;;5.33;4.50;;;;;;;;;;6246783;23;20328;-83
2023/09/07 10:34:45;;;;;;;5.15;4.65;;;;;;;;;;6221407;23;20082;-83
2023/09/07 10:37:15;;;;;;;7.72;4.82;;;;;;;;;;6247109;23;20024;-83
2023/09/07 10:39:45;;;;;;;8.52;5.15;;;;;;;;;;6243486;23;20182;-83
2023/09/07 10:42:22;;;;;;;6.55;4.60;;;;;;;;;;6245950;23;20382;-84
2023/09/07 10:44:48;;;;;;;5.32;4.45;;;;;;;;;;6244017;23;20470;-84
2023/09/07 10:47:17;;;;;;;5.13;4.60;;;;;;;;;;6192986;23;20066;-84
2023/09/07 10:49:43;;;;;;;6.18;4.78;;;;;;;;;;6193796;23;20166;-84
2023/09/07 10:52:09;;;;;;;5.90;4.78;;;;;;;;;;6219299;23;20013;-84
2023/09/07 10:54:36;;;;;;;6.30;5.30;;;;;;;;;;6218963;23;20058;-84
2023/09/07 10:57:17;;;;;;;5.45;4.43;;;;;;;;;;6193654;23;20043;-84
2023/09/07 10:59:46;;;;;;;7.65;5.20;;;;;;;;;;6193861;23;20050;-84
2023/09/07 11:02:12;;;;;;;8.80;5.53;;;;;;;;;;6193841;23;20099;-84
2023/09/07 11:04:39;;;;;;;7.68;5.05;;;;;;;;;;6193972;23;20012;-84
2023/09/07 11:07:05;;;;;;;5.40;4.45;;;;;;;;;;6194140;23;20104;-84
2023/09/07 11:09:31;;;;;;;7.47;4.57;;;;;;;;;;6219026;23;20091;-85
2023/09/07 11:11:58;;;;;;;9.75;5.07;;;;;;;;;;6219752;23;20016;-84
2023/09/07 11:14:29;;;;;;;5.68;4.97;;;;;;;;;;6194402;23;20031;-84
2023/09/07 11:16:56;;;;;;;9.48;4.95;;;;;;;;;;6219146;23;20085;-84
2023/09/07 11:19:23;;;;;;;8.10;4.93;;;;;;;;;;6193176;23;20208;-84
2023/09/07 11:21:51;;;;;;;5.28;4.50;;;;;;;;;;6245847;23;20012;-85
2023/09/07 11:24:17;;;;;;;6.65;4.60;;;;;;;;;;6218693;23;20016;-84
2023/09/07 11:26:47;;;;;;;5.10;4.60;;;;;;;;;;6193419;23;20027;-85
2023/09/07 11:29:18;;;;;;;7.13;4.53;;;;;;;;;;6220512;23;20016;-85
2023/09/07 11:31:45;;;;;;;5.85;4.75;;;;;;;;;;6195371;23;20355;-84
2023/09/07 11:34:12;;;;;;;6.45;4.78;;;;;;;;;;6220769;23;20013;-84
2023/09/07 11:36:38;;;;;;;10.20;4.78;;;;;;;;;;6220106;23;20019;-84
2023/09/07 11:39:14;;;;;;;6.20;4.53;;;;;;;;;;6195594;23;20024;-84
2023/09/07 11:41:40;;;;;;;;;;;;;;;;;;6196052;23;20012;-85
2023/09/07 11:44:07;;;;;;;6.20;4.63;;;;;;;;;;6221004;23;19916;-84
2023/09/07 11:46:33;;;;;;;7.18;4.85;;;;;;;;;;6220605;23;20020;-84
2023/09/07 11:48:59;;;;;;;6.65;4.80;;;;;;;;;;6195690;23;20020;-85
2023/09/07 11:51:26;;;;;;;5.18;4.68;;;;;;;;;;6245700;23;20048;-85
2023/09/07 11:53:52;;;;;;;5.55;4.65;;;;;;;;;;6220043;23;20016;-84
2023/09/07 11:56:18;;;;;;;6.43;4.85;;;;;;;;;;6245499;23;20043;-85
2023/09/07 11:58:44;;;;;;;6.97;5.40;;;;;;;;;;6220019;23;20074;-84
2023/09/07 12:01:34;;;;;;;5.90;4.72;;;;;;;;;;6194343;23;20031;-86
2023/09/07 12:04:27;;;;;;;5.65;4.70;;;;;;;;;;6192670;23;20020;-86
2023/09/07 12:06:53;;;;;;;8.30;4.97;;;;;;;;;;6217662;23;20026;-86
2023/09/07 12:09:19;;;;;;;7.95;4.72;;;;;;;;;;6195973;23;20456;-85
2023/09/07 12:11:45;;;;;;;7.15;4.47;;;;;;;;;;6220711;23;20439;-85
2023/09/07 12:14:20;;;;;;;7.53;5.18;;;;;;;;;;6195745;23;20101;-85
2023/09/07 12:16:46;;;;;;;7.03;4.70;;;;;;;;;;6196759;23;20016;-85
2023/09/07 12:19:15;;;;;;;6.20;4.40;;;;;;;;;;6195947;23;20054;-86
2023/09/07 12:21:50;;;;;;;6.75;5.20;;;;;;;;;;6222620;23;20016;-85
2023/09/07 12:24:19;;;;;;;6.32;5.07;;;;;;;;;;6195466;23;20016;-85
2023/09/07 12:26:55;;;;;;;5.00;4.50;;;;;;;;;;6220759;23;20020;-86
2023/09/07 12:32:26;;;;;;;9.05;5.22;;;;;;;;;;6209631;23;20024;-84
2023/09/07 12:34:53;;;;;;;5.60;4.55;;;;;;;;;;6195135;23;20501;-83
2023/09/07 12:37:23;;;;;;;7.68;4.88;;;;;;;;;;6195722;23;20389;-83
2023/09/07 12:39:49;;;;;;;6.18;4.53;;;;;;;;;;6219134;23;20017;-83
2023/09/07 12:42:15;;;;;;;5.28;4.53;;;;;;;;;;6245869;23;20527;-84
2023/09/07 12:44:41;;;;;;;6.72;4.80;;;;;;;;;;6219842;23;20020;-84
2023/09/07 12:47:07;;;;;;;7.38;4.65;;;;;;;;;;6219831;23;20020;-84
2023/09/07 12:49:34;;;;;;;6.20;4.45;;;;;;;;;;6194806;23;20376;-85
2023/09/07 12:52:00;;;;;;;6.55;4.40;;;;;;;;;;6194322;23;20062;-86
2023/09/07 12:54:26;;;;;;;7.13;4.38;;;;;;;;;;6194323;23;20444;-84
2023/09/07 12:56:55;;;;;;;5.38;4.10;;;;;;;;;;6218805;23;20020;-84
2023/09/07 12:59:22;;;;;;;5.38;4.15;;;;;;;;;;6245759;23;20017;-85
2023/09/07 13:01:48;;;;;;;9.25;4.60;;;;;;;;;;6193342;23;20020;-85
2023/09/07 13:04:14;;;;;;;6.75;4.13;;;;;;;;;;6194801;23;20064;-85
2023/09/07 13:06:40;;;;;;;6.07;3.95;;;;;;;;;;6219005;23;20016;-84
2023/09/07 13:09:09;;;;;;;5.40;4.38;;;;;;;;;;6190022;23;20016;-86
2023/09/07 13:11:41;;;;;;;5.20;4.05;;;;;;;;;;6194807;23;20020;-86
2023/09/07 13:14:13;;;;;;;6.63;4.43;;;;;;;;;;6220738;23;20476;-86
2023/09/07 13:16:45;;;;;;;5.65;4.63;;;;;;;;;;6196475;23;20065;-85
2023/09/07 13:19:13;;;;;;;6.32;4.63;;;;;;;;;;6220255;23;20016;-85
2023/09/07 13:21:39;;;;;;;4.90;4.40;;;;;;;;;;6196233;23;20094;-85
2023/09/07 13:24:15;;;;;;;6.25;4.70;;;;;;;;;;6197188;23;20016;-86
2023/09/07 13:26:44;;;;;;;;;;;;;;;;;;6222422;23;20012;-86
2023/09/07 13:32:25;;;;;;;6.10;4.60;;;;;;;;;;6223570;23;20024;-86
2023/09/07 13:35:12;;;;;;;6.00;4.28;;;;;;;;;;6223777;23;20377;-86
2023/09/07 13:37:38;;;;;;;6.38;4.28;;;;;;;;;;6190592;23;20020;-87
2023/09/07 13:40:07;;;;;;;6.50;4.53;;;;;;;;;;6190361;23;20107;-87
2023/09/07 13:42:36;;;;;;;5.05;4.55;;;;;;;;;;6215781;23;20348;-86
2023/09/07 13:45:06;;;;;;;4.60;4.20;;;;;;;;;;6190881;23;20095;-87
2023/09/07 13:47:32;;;;;;;5.65;4.20;;;;;;;;;;6190078;23;20059;-86
2023/09/07 13:50:01;;;;;;;6.05;4.40;;;;;;;;;;6190177;23;20016;-86
2023/09/07 13:52:27;;;;;;;5.35;4.20;;;;;;;;;;6191362;23;20016;-87
2023/09/07 13:54:56;;;;;;;6.20;4.18;;;;;;;;;;6195079;23;20013;-87
2023/09/07 13:57:22;;;;;;;5.35;4.47;;;;;;;;;;6226887;23;20020;-87
2023/09/07 13:59:50;;;;;;;5.20;4.70;;;;;;;;;;6216919;23;20021;-86
2023/09/07 14:02:16;;;;;;;4.82;4.40;;;;;;;;;;6190500;23;20021;-86
2023/09/07 14:04:44;;;;;;;5.15;4.47;;;;;;;;;;6189296;23;20031;-86
2023/09/07 14:07:10;;;;;;;6.78;4.43;;;;;;;;;;6189267;23;20106;-85
2023/09/07 14:09:36;;;;;;;6.03;4.57;;;;;;;;;;6188919;23;20456;-85
2023/09/07 14:12:09;;;;;;;7.97;4.22;;;;;;;;;;6189974;23;20067;-86
2023/09/07 14:14:38;;;;;;;4.85;4.20;;;;;;;;;;6190149;23;20024;-85
2023/09/07 14:17:05;;;;;;;5.75;4.53;;;;;;;;;;6214490;23;20051;-86
2023/09/07 14:19:34;;;;;;;5.68;4.35;;;;;;;;;;6189122;23;20024;-85
2023/09/07 14:22:00;;;;;;;6.72;4.28;;;;;;;;;;6189114;23;20055;-84
2023/09/07 14:24:27;;;;;;;7.38;4.65;;;;;;;;;;6212653;23;20470;-84
2023/09/07 14:26:53;;;;;;;6.35;4.80;;;;;;;;;;6188141;23;20033;-85
2023/09/07 14:29:19;;;;;;;6.13;4.55;;;;;;;;;;6188249;23;20029;-83
2023/09/07 14:31:45;;;;;;;9.43;4.85;;;;;;;;;;6187943;23;20017;-83
2023/09/07 14:34:12;;;;;;;7.28;4.88;;;;;;;;;;6188435;23;20023;-83
2023/09/07 14:36:38;;;;;;;5.80;4.60;;;;;;;;;;6188176;23;20023;-84
2023/09/07 14:39:08;;;;;;;7.63;5.07;;;;;;;;;;6215203;23;20020;-84
2023/09/07 14:41:35;;;;;;;5.10;4.57;;;;;;;;;;6187195;23;20066;-84
2023/09/07 14:44:01;;;;;;;8.02;4.80;;;;;;;;;;6213402;23;20023;-84
2023/09/07 14:46:27;;;;;;;5.63;4.30;;;;;;;;;;6186329;23;20043;-84
2023/09/07 14:48:53;;;;;;;7.07;4.70;;;;;;;;;;6188639;23;20016;-84
2023/09/07 14:51:19;;;;;;;6.55;4.80;;;;;;;;;;6212661;23;20084;-84
2023/09/07 14:53:46;;;;;;;7.78;4.80;;;;;;;;;;6188862;23;20088;-84
2023/09/07 14:56:12;;;;;;;6.07;4.60;;;;;;;;;;6213015;23;20091;-84
2023/09/07 14:58:38;;;;;;;6.72;5.00;;;;;;;;;;6188231;23;20512;-84
2023/09/07 15:01:04;;;;;;;4.95;4.10;;;;;;;;;;6188252;23;20058;-84
2023/09/07 15:03:30;;;;;;;7.22;4.53;;;;;;;;;;6188279;23;20036;-84
2023/09/07 15:05:57;;;;;;;7.95;4.75;;;;;;;;;;6214332;23;20448;-84
2023/09/07 15:08:23;;;;;;;5.47;4.68;;;;;;;;;;6190541;23;20013;-84
2023/09/07 15:10:49;;;;;;;5.90;4.80;;;;;;;;;;6190166;23;20021;-84
2023/09/07 15:13:16;;;;;;;5.88;4.50;;;;;;;;;;6214960;23;20021;-84
2023/09/07 15:15:42;;;;;;;6.25;4.80;;;;;;;;;;6214190;23;20476;-83
2023/09/07 15:18:08;;;;;;;5.68;4.82;;;;;;;;;;6189819;23;20154;-83
2023/09/07 15:20:35;;;;;;;6.50;4.78;;;;;;;;;;6189830;23;20020;-84
2023/09/07 15:23:02;;;;;;;7.07;4.75;;;;;;;;;;6215484;23;20143;-84
2023/09/07 15:25:30;;;;;;;7.57;4.70;;;;;;;;;;6190250;23;20022;-84
2023/09/07 15:27:56;;;;;;;6.97;4.80;;;;;;;;;;6216650;23;20020;-84
2023/09/07 15:30:23;;;;;;;5.60;4.80;;;;;;;;;;6215472;23;20094;-84
2023/09/07 15:32:49;;;;;;;6.13;4.80;;;;;;;;;;6240877;23;20103;-84
2023/09/07 15:35:16;;;;;;;6.85;4.60;;;;;;;;;;6215427;23;20039;-84
2023/09/07 15:37:45;;;;;;;7.40;4.70;;;;;;;;;;6188932;23;20267;-83
2023/09/07 15:40:12;;;;;;;5.55;4.90;;;;;;;;;;6189827;23;20028;-83
2023/09/07 15:42:38;;;;;;;7.30;5.20;;;;;;;;;;6215355;23;20376;-83
2023/09/07 15:45:05;;;;;;;5.22;4.55;;;;;;;;;;6215013;23;20017;-83
2023/09/07 15:47:34;;;;;;;6.35;4.70;;;;;;;;;;6214632;23;20072;-83
2023/09/07 15:50:00;;;;;;;8.93;5.55;;;;;;;;;;6216845;23;20024;-84
2023/09/07 15:52:26;;;;;;;6.30;4.65;;;;;;;;;;6215094;23;20013;-84
2023/09/07 15:54:52;;;;;;;8.80;4.38;;;;;;;;;;6189381;23;20078;-84
2023/09/07 15:57:19;;;;;;;6.60;4.93;;;;;;;;;;6215065;23;20517;-84
2023/09/07 15:59:48;;;;;;;16.83;8.20;;;;;;;;;;6215380;23;20020;-84
2023/09/07 16:02:17;;;;;;;7.00;5.05;;;;;;;;;;6215721;23;20059;-84
2023/09/07 16:04:46;;;;;;;8.43;4.85;;;;;;;;;;6215231;23;20017;-84
2023/09/07 16:07:12;;;;;;;7.57;4.80;;;;;;;;;;6189792;23;20017;-85
2023/09/07 16:09:39;;;;;;;23.27;9.30;;;;;;;;;;6214717;23;20036;-84
2023/09/07 16:12:05;;;;;;;8.48;5.80;;;;;;;;;;6240919;23;20052;-84
2023/09/07 16:14:31;;;;;;;6.43;5.30;;;;;;;;;;6189490;23;20070;-84
2023/09/07 16:16:59;;;;;;;11.73;6.63;;;;;;;;;;6216730;23;20024;-84
2023/09/07 16:19:26;;;;;;;6.80;4.80;;;;;;;;;;6189934;23;20440;-84
2023/09/07 16:21:52;;;;;;;9.73;5.32;;;;;;;;;;6189251;23;20024;-85
2023/09/07 16:24:18;;;;;;;25.73;8.82;;;;;;;;;;6214790;23;20104;-84
2023/09/07 16:26:44;;;;;;;6.07;4.82;;;;;;;;;;6215912;23;20313;-84
2023/09/07 16:29:11;;;;;;;13.05;5.32;;;;;;;;;;6215010;23;20078;-84
2023/09/07 16:31:37;;;;;;;7.45;5.40;;;;;;;;;;6215754;23;20093;-84
2023/09/07 16:34:04;;;;;;;5.53;4.43;;;;;;;;;;6213027;23;20032;-84
2023/09/07 16:36:30;;;;;;;8.38;5.20;;;;;;;;;;6195049;23;20012;-84
2023/09/07 16:38:56;;;;;;;17.73;6.97;;;;;;;;;;6194373;23;20016;-84
2023/09/07 16:41:22;;;;;;;7.80;5.45;;;;;;;;;;6246116;23;20020;-84
2023/09/07 16:43:48;;;;;;;18.60;9.10;;;;;;;;;;6195183;23;20013;-84
2023/09/07 16:46:14;;;;;;;10.93;6.10;;;;;;;;;;6245977;23;20027;-84
2023/09/07 16:48:40;;;;;;;10.55;6.72;;;;;;;;;;6219952;23;20020;-84
2023/09/07 16:51:07;;;;;;;7.28;5.60;;;;;;;;;;6194144;23;20091;-84
2023/09/07 16:53:34;;;;;;;5.72;5.22;;;;;;;;;;6246201;23;20019;-84
2023/09/07 16:56:00;;;;;;;6.30;5.70;;;;;;;;;;6218286;23;20016;-84
2023/09/07 16:58:27;;;;;;;7.30;6.00;;;;;;;;;;6246481;23;20020;-85
2023/09/07 17:00:53;;;;;;;6.40;5.68;;;;;;;;;;6194058;23;20078;-85
2023/09/07 17:03:19;;;;;;;7.80;5.90;;;;;;;;;;6246395;23;20096;-84
2023/09/07 17:05:47;;;;;;;5.90;5.25;;;;;;;;;;6245993;23;20012;-84
2023/09/07 17:08:17;;;;;;;7.75;5.25;;;;;;;;;;6246215;23;20091;-84
2023/09/07 17:10:43;;;;;;;6.93;5.72;;;;;;;;;;6219450;23;20027;-84
2023/09/07 17:13:09;;;;;;;6.60;5.65;;;;;;;;;;6219665;23;20444;-84
2023/09/07 17:15:35;;;;;;;7.57;5.30;;;;;;;;;;6245164;23;20016;-84
2023/09/07 17:18:02;;;;;;;10.65;5.88;;;;;;;;;;6219119;23;20052;-84
2023/09/07 17:20:28;;;;;;;6.32;5.72;;;;;;;;;;6243737;23;20071;-84
2023/09/07 17:22:54;;;;;;;7.32;5.82;;;;;;;;;;6243826;23;20143;-84
2023/09/07 17:25:21;;;;;;;9.13;6.00;;;;;;;;;;6245847;23;20012;-84
2023/09/07 17:27:47;;;;;;;7.20;5.88;;;;;;;;;;6193885;23;20463;-84
2023/09/07 17:30:14;;;;;;;6.70;6.00;;;;;;;;;;6218818;23;20020;-84
2023/09/07 17:32:40;;;;;;;9.95;5.35;;;;;;;;;;6245060;23;20016;-83
2023/09/07 17:35:06;;;;;;;9.82;5.72;;;;;;;;;;6244596;23;20391;-83
2023/09/07 17:37:33;;;;;;;7.00;5.60;;;;;;;;;;6213758;23;20048;-84
2023/09/07 17:40:02;;;;;;;8.73;5.85;;;;;;;;;;6215045;23;20479;-85